Decoded Metar for LDZA (ZAGREB in CROATIA) (IATA:ZAG) | Meteo·Mobile Aviation Weather
aviador You're here:

LDZA Decoded Metar

ZAGREB in CROATIA
Report Time2018-08-21 22:00:00
UTC Time2018-08-21 22:18:46
Flight Rules vfr VFR
Wind230° at 03 kt
W.Decomp.*RWY 23: 3.0 kt HW 0.1 kt LCW
W.Rank230° ranks 3
Current wind is below 230° avg. (5.2)
Visibility9999 m
Phenomena:N/A
Clouds:N/A
Expected CloudBase > 1,600 ft AGL from Temp-Dew spread
CeilingNone
Temp21°C (ISA +7)
Dew Point17°C (78% RH)
QNH1017 hPa
Density Alt1,257 ft
Elevation351 ft
Report Wrong Elevation
Raw Report
LDZA 212200Z 23003KT CAVOK 21/17 Q1017 NOSIG=

Extra information for LDZA:More info

Metar Taf Metar & Taf Last 4 Metars F.Rules Stats Wind Profile Meteogram Temp Stats Airport Information Weather charts Add Link Nearby VenuesMetar ALERT Operation Metar Decoded Social comments